Time;durP1;ratioP1;P1;durP2;ratioP2;P2;SDS_P1;SDS_P2;PMS_P1;PMS_P2;Temp;Humidity;BMP_temperature;BMP_pressure;BME280_temperature;BME280_humidity;BME280_pressure;Samples;Min_cycle;Max_cycle;Signal;HPM_P1;HPM_P2
2023/02/09 00:02:06;;;;;;;13.38;10.02;;;;;;;-0.87;85.24;147114.94;5057036;28;20029;-66
2023/02/09 00:04:33;;;;;;;14.43;10.45;;;;;;;-0.80;85.47;147130.16;5057031;28;20091;-66
2023/02/09 00:07:00;;;;;;;12.60;10.07;;;;;;;-0.83;85.53;147122.56;5044514;28;20067;-66
2023/02/09 00:09:26;;;;;;;14.32;10.75;;;;;;;-0.76;85.59;147141.59;5044671;28;20021;-67
2023/02/09 00:14:35;;;;;;;13.07;10.15;;;;;;;-0.85;85.38;147118.75;5044685;28;20225;-67
2023/02/09 00:17:01;;;;;;;12.88;9.98;;;;;;;-0.81;85.98;147127.63;5044702;28;20029;-67
2023/02/09 00:19:27;;;;;;;16.15;11.23;;;;;;;-0.91;85.27;147104.78;5044397;28;20139;-66
2023/02/09 00:21:53;;;;;;;11.82;10.52;;;;;;;-0.74;85.58;147145.41;5044351;28;20032;-65
2023/02/09 00:24:19;;;;;;;15.93;11.73;;;;;;;-0.88;85.84;147112.38;5044298;28;20037;-67
2023/02/09 00:26:46;;;;;;;15.82;12.10;;;;;;;-0.78;85.44;147135.28;5044245;28;20021;-66
2023/02/09 00:29:12;;;;;;;14.23;11.27;;;;;;;-0.84;85.90;147120.00;5044087;28;20029;-67
2023/02/09 00:31:37;;;;;;;16.40;11.85;;;;;;;-0.91;87.26;147103.53;5043895;28;20026;-67
2023/02/09 00:34:04;;;;;;;16.15;11.93;;;;;;;-0.88;87.09;147111.13;5043576;28;20045;-67
2023/02/09 00:36:30;;;;;;;13.43;11.43;;;;;;;-0.85;87.15;147117.50;5026605;28;20040;-65
2023/02/09 00:38:55;;;;;;;15.45;11.48;;;;;;;-0.92;86.53;147100.97;5044009;28;20025;-66
2023/02/09 00:42:04;;;;;;;14.18;11.60;;;;;;;-0.87;86.24;147114.94;5058334;28;20066;-66
2023/02/09 00:44:07;;;;;;;14.48;10.98;;;;;;;-0.86;86.68;147116.19;5063735;28;20086;-67
2023/02/09 00:46:33;;;;;;;14.63;10.95;;;;;;;-0.83;86.10;147123.81;5056382;28;20036;-66
2023/02/09 00:48:58;;;;;;;13.90;10.02;;;;;;;-0.73;87.39;147147.97;5046600;28;20245;-66
2023/02/09 00:51:24;;;;;;;12.93;9.65;;;;;;;-0.78;86.65;147135.28;5064115;28;20075;-67
2023/02/09 00:53:49;;;;;;;12.63;9.05;;;;;;;-0.69;86.93;147158.13;5045309;28;20025;-66
2023/02/09 00:56:15;;;;;;;12.85;10.07;;;;;;;-0.79;87.13;147133.97;5043564;28;20049;-66
2023/02/09 00:58:40;;;;;;;10.30;9.00;;;;;;;-0.72;87.24;147151.75;5043563;28;20025;-65
2023/02/09 01:01:12;;;;;;;12.48;10.00;;;;;;;-0.84;86.69;147121.31;5047105;28;20298;-66
2023/02/09 01:03:41;;;;;;;12.43;9.05;;;;;;;-0.77;87.54;147139.09;5063520;28;20099;-66
2023/02/09 01:06:07;;;;;;;12.10;9.68;;;;;;;-0.76;86.93;147140.34;5023458;28;20057;-65
2023/02/09 01:08:33;;;;;;;12.32;10.30;;;;;;;-0.78;86.92;147136.53;5038964;28;20518;-67
2023/02/09 01:10:59;;;;;;;13.35;10.15;;;;;;;-0.69;87.20;147158.13;5047883;28;20022;-67
2023/02/09 01:13:24;;;;;;;12.77;8.98;;;;;;;-0.65;87.04;147167.03;5042684;28;20282;-66
2023/02/09 01:15:50;;;;;;;14.35;9.88;;;;;;;-0.65;87.23;147168.28;5042715;28;20033;-66
2023/02/09 01:18:16;;;;;;;13.45;10.38;;;;;;;-0.67;86.90;147163.22;5042925;28;20045;-66
2023/02/09 01:20:42;;;;;;;12.77;9.52;;;;;;;-0.61;86.33;147178.47;5043022;28;20067;-67
2023/02/09 01:23:09;;;;;;;12.60;9.52;;;;;;;-0.56;86.91;147191.13;5043038;28;20106;-66
2023/02/09 01:25:35;;;;;;;12.82;9.85;;;;;;;-0.61;87.37;147178.47;5042207;28;20022;-68
2023/02/09 01:28:00;;;;;;;11.80;8.85;;;;;;;-0.58;86.60;147186.09;5043037;28;20029;-66
2023/02/09 01:30:26;;;;;;;11.88;8.55;;;;;;;-0.55;86.67;147192.44;5043182;28;20084;-66
2023/02/09 01:32:52;;;;;;;14.73;9.80;;;;;;;-0.55;86.62;147193.69;5042843;28;20029;-68
2023/02/09 01:35:17;;;;;;;11.75;9.05;;;;;;;-0.52;86.95;147201.31;5042943;28;20033;-67
2023/02/09 01:37:43;;;;;;;14.77;10.13;;;;;;;-0.62;87.71;147175.91;5042920;28;20049;-67
2023/02/09 01:40:09;;;;;;;14.75;9.57;;;;;;;-0.62;87.33;147174.66;5046008;28;20075;-67
2023/02/09 01:42:35;;;;;;;12.00;9.20;;;;;;;-0.53;86.75;147197.50;5063048;28;20537;-67
2023/02/09 01:45:17;;;;;;;12.10;9.25;;;;;;;-0.48;87.42;147208.97;5079293;28;20634;-66
2023/02/09 01:47:51;;;;;;;14.60;9.73;;;;;;;-0.63;87.26;147172.09;5079145;28;20119;-66
2023/02/09 01:50:17;;;;;;;17.42;10.55;;;;;;;-0.69;87.51;147158.13;5081901;28;20029;-66
2023/02/09 01:52:43;;;;;;;14.40;10.15;;;;;;;-0.57;87.60;147188.63;5069933;28;20167;-66
2023/02/09 01:55:14;;;;;;;13.15;9.52;;;;;;;-0.52;86.97;147200.06;5079136;28;20035;-66
2023/02/09 01:57:46;;;;;;;11.88;9.25;;;;;;;-0.58;87.35;147186.09;5079055;28;20043;-66
2023/02/09 02:00:18;;;;;;;12.75;9.73;;;;;;;-0.49;86.81;147206.44;5059043;28;20029;-67
2023/02/09 02:02:46;;;;;;;;;;;;;;;-0.55;86.73;147193.69;5058530;28;20280;-66
2023/02/09 02:05:12;;;;;;;11.32;9.27;;;;;;;-0.47;86.48;147211.47;5069816;28;20108;-65
2023/02/09 02:07:44;;;;;;;14.45;9.63;;;;;;;-0.51;86.84;147202.63;5078690;28;20036;-65
2023/02/09 02:10:09;;;;;;;;;;;;;;;-0.53;87.51;147197.50;5079348;28;20079;-65
2023/02/09 02:12:36;;;;;;;13.85;10.13;;;;;;;-0.47;86.80;147211.47;5077901;28;20125;-66
2023/02/09 02:15:01;;;;;;;11.70;9.05;;;;;;;-0.42;86.94;147224.22;5077577;28;20044;-65
2023/02/09 02:17:45;;;;;;;13.85;9.77;;;;;;;-0.40;86.47;147229.28;5078689;28;20031;-65
2023/02/09 02:20:30;;;;;;;14.23;10.07;;;;;;;-0.56;87.09;147191.13;5078512;28;20028;-65
2023/02/09 02:23:08;;;;;;;14.27;10.57;;;;;;;-0.42;87.06;147224.22;5078623;28;20283;-66
2023/02/09 02:26:14;;;;;;;14.00;9.82;;;;;;;-0.41;87.03;147226.78;5077447;28;20216;-65
2023/02/09 02:29:01;;;;;;;12.57;8.95;;;;;;;-0.44;86.27;147220.41;5078531;28;20033;-66
2023/02/09 02:32:05;;;;;;;14.07;9.35;;;;;;;-0.39;86.57;147233.09;5078473;28;20028;-65
2023/02/09 02:34:53;;;;;;;13.40;9.88;;;;;;;-0.57;86.31;147188.63;5069834;28;20039;-66
2023/02/09 02:37:44;;;;;;;13.40;9.55;;;;;;;-0.32;86.24;147248.38;5060626;28;20287;-66
2023/02/09 02:40:31;;;;;;;15.93;9.93;;;;;;;-0.42;86.25;147224.22;5072342;28;20041;-66
2023/02/09 02:42:56;;;;;;;12.15;9.52;;;;;;;-0.38;86.00;147234.38;5038198;28;20033;-66
2023/02/09 02:45:48;;;;;;;11.95;9.75;;;;;;;-0.33;86.34;147245.81;5055006;28;20093;-66
2023/02/09 02:48:17;;;;;;;13.48;9.57;;;;;;;-0.38;85.95;147235.63;5052034;28;20049;-66
2023/02/09 02:50:58;;;;;;;13.50;9.85;;;;;;;-0.45;85.83;147217.84;5067295;28;20040;-66
2023/02/09 02:53:28;;;;;;;13.70;9.35;;;;;;;-0.35;86.57;147242.00;5062506;28;20080;-66
2023/02/09 02:55:57;;;;;;;12.75;9.85;;;;;;;-0.33;86.48;147247.06;5045810;28;20057;-67
2023/02/09 02:58:24;;;;;;;12.70;9.73;;;;;;;-0.40;85.88;147229.28;5047221;28;20037;-66
2023/02/09 03:00:54;;;;;;;11.52;9.10;;;;;;;-0.34;86.53;147244.56;5045899;28;20217;-66
2023/02/09 03:03:29;;;;;;;12.85;8.88;;;;;;;-0.36;85.83;147239.44;5042263;28;20334;-65
2023/02/09 03:05:56;;;;;;;13.48;9.10;;;;;;;-0.29;85.92;147255.97;5043970;28;20088;-66
2023/02/09 03:08:21;;;;;;;10.10;8.95;;;;;;;-0.47;86.40;147212.78;5056996;28;20036;-66
2023/02/09 03:10:47;;;;;;;12.23;9.43;;;;;;;-0.45;86.47;147217.84;5064334;28;20241;-66
2023/02/09 03:13:17;;;;;;;11.05;8.70;;;;;;;-0.38;87.06;147234.38;5064366;28;20096;-66
2023/02/09 03:16:01;;;;;;;11.45;8.55;;;;;;;-0.32;87.40;147248.38;5064226;28;20088;-66
2023/02/09 03:18:49;;;;;;;13.70;8.77;;;;;;;-0.28;86.16;147258.53;5044436;28;20447;-66
2023/02/09 03:21:50;;;;;;;10.65;9.07;;;;;;;-0.32;86.90;147248.38;5049815;28;20059;-67
2023/02/09 03:24:22;;;;;;;13.85;8.88;;;;;;;-0.30;86.94;147253.44;5059349;28;20096;-66
2023/02/09 03:26:59;;;;;;;13.25;10.10;;;;;;;-0.27;86.81;147261.03;5065454;28;20033;-66
2023/02/09 03:29:27;;;;;;;9.73;8.60;;;;;;;-0.29;86.93;147255.97;5064147;28;20032;-66
2023/02/09 03:31:53;;;;;;;10.23;8.13;;;;;;;-0.32;86.27;147248.38;5064019;28;20081;-66
2023/02/09 03:34:19;;;;;;;9.30;8.02;;;;;;;-0.26;86.10;147263.59;5063969;28;20028;-66
2023/02/09 03:36:51;;;;;;;10.07;7.72;;;;;;;-0.33;85.86;147245.81;5063231;28;20032;-66
2023/02/09 03:39:16;;;;;;;;;;;;;;;-0.24;85.31;147269.97;5044580;28;20206;-67
2023/02/09 03:41:42;;;;;;;9.45;7.60;;;;;;;-0.24;85.85;147269.97;5057565;28;19905;-67
2023/02/09 03:44:25;;;;;;;10.32;8.30;;;;;;;-0.19;85.46;147282.66;5063778;28;20048;-66
2023/02/09 03:46:59;;;;;;;11.60;9.60;;;;;;;-0.27;85.20;147262.34;5063772;28;20048;-66
2023/02/09 03:49:28;;;;;;;9.98;8.18;;;;;;;-0.30;85.54;147254.72;5063560;28;20020;-66
2023/02/09 03:51:54;;;;;;;11.10;9.50;;;;;;;-0.26;85.08;147264.84;5062995;28;20032;-65
2023/02/09 03:54:20;;;;;;;9.65;8.52;;;;;;;-0.26;85.54;147264.84;5063507;28;20033;-66
2023/02/09 03:56:46;;;;;;;10.93;8.18;;;;;;;-0.25;84.85;147266.16;5062314;28;20075;-66
2023/02/09 03:59:12;;;;;;;10.10;8.30;;;;;;;-0.18;84.66;147285.19;5063368;28;20032;-65
2023/02/09 04:01:37;;;;;;;12.27;8.90;;;;;;;-0.26;84.52;147264.84;5063062;28;20028;-66
2023/02/09 04:04:03;;;;;;;10.77;8.77;;;;;;;-0.20;85.03;147278.84;5063077;28;20037;-66
2023/02/09 04:06:31;;;;;;;9.35;7.88;;;;;;;-0.22;85.24;147273.78;5062371;28;20032;-65
2023/02/09 04:09:01;;;;;;;12.18;8.82;;;;;;;-0.15;85.41;147290.31;5063132;28;20375;-66
2023/02/09 04:11:27;;;;;;;12.38;9.43;;;;;;;-0.22;84.90;147275.03;5062044;28;20064;-66
2023/02/09 04:13:52;;;;;;;10.73;9.27;;;;;;;-0.21;84.71;147277.59;5062989;28;20029;-67
2023/02/09 04:16:18;;;;;;;12.18;9.23;;;;;;;-0.13;84.42;147296.63;5057272;28;20298;-70
2023/02/09 04:18:44;;;;;;;12.18;9.02;;;;;;;-0.21;84.89;147277.59;5062134;28;20201;-67
2023/02/09 04:21:10;;;;;;;12.20;9.93;;;;;;;-0.23;85.09;147271.22;5061967;28;20140;-67
2023/02/09 04:23:36;;;;;;;13.95;10.07;;;;;;;-0.36;85.62;147240.75;5063076;28;20032;-67
2023/02/09 04:26:02;;;;;;;15.23;10.52;;;;;;;-0.38;85.51;147235.63;5062696;28;20025;-66
2023/02/09 04:28:28;;;;;;;13.73;9.73;;;;;;;-0.36;85.90;147239.44;5063000;28;20084;-67
2023/02/09 04:30:54;;;;;;;14.57;10.90;;;;;;;-0.41;85.88;147226.78;5061569;28;20019;-67
2023/02/09 04:33:22;;;;;;;14.57;10.40;;;;;;;-0.29;85.43;147255.97;5042817;28;20041;-66
2023/02/09 04:35:47;;;;;;;13.00;10.38;;;;;;;-0.22;84.94;147273.78;5057061;28;20059;-67
2023/02/09 04:38:19;;;;;;;11.90;9.70;;;;;;;-0.12;84.38;147297.94;5062550;28;20321;-67
2023/02/09 04:40:49;;;;;;;13.00;10.35;;;;;;;-0.16;84.59;147287.75;5062300;28;20037;-66
2023/02/09 04:43:15;;;;;;;12.38;9.65;;;;;;;-0.18;84.85;147283.94;5062504;28;20088;-66
2023/02/09 04:45:41;;;;;;;13.18;10.02;;;;;;;-0.14;85.14;147292.81;5062386;28;20101;-66
2023/02/09 04:48:10;;;;;;;15.52;10.55;;;;;;;-0.20;84.80;147280.13;5062357;28;20033;-66
2023/02/09 04:50:35;;;;;;;13.52;9.98;;;;;;;-0.24;84.31;147268.72;5061287;28;20175;-67
2023/02/09 04:53:01;;;;;;;14.80;10.55;;;;;;;-0.16;84.59;147287.75;5062261;28;20079;-66
2023/02/09 04:55:27;;;;;;;12.70;9.93;;;;;;;-0.12;84.26;147297.94;5062022;28;20495;-66
2023/02/09 05:00:36;;;;;;;13.65;10.20;;;;;;;-0.12;84.01;147297.94;5045608;28;20075;-66
2023/02/09 05:03:02;;;;;;;11.88;9.57;;;;;;;-0.16;84.07;147289.00;5060942;28;20032;-67
2023/02/09 05:05:28;;;;;;;12.57;10.40;;;;;;;-0.07;84.82;147310.63;5061033;28;20055;-67
2023/02/09 05:07:53;;;;;;;15.48;11.23;;;;;;;-0.08;83.94;147309.38;5061813;28;20035;-68
2023/02/09 05:10:19;;;;;;;13.13;10.70;;;;;;;-0.10;83.60;147303.00;5061988;28;20033;-65
2023/02/09 05:12:46;;;;;;;12.93;9.85;;;;;;;-0.13;83.65;147296.63;5062207;28;20029;-66
2023/02/09 05:15:12;;;;;;;14.15;10.48;;;;;;;-0.15;83.56;147290.31;5060223;28;20067;-67
2023/02/09 05:17:38;;;;;;;12.50;10.60;;;;;;;-0.02;83.40;147323.34;5060243;28;20024;-68
2023/02/09 05:20:04;;;;;;;12.23;10.07;;;;;;;-0.05;83.54;147315.72;5061873;28;20347;-66
2023/02/09 05:22:29;;;;;;;13.13;10.27;;;;;;;-0.07;82.98;147310.63;5061585;28;20077;-66
2023/02/09 05:24:55;;;;;;;14.15;10.43;;;;;;;-0.02;83.30;147324.59;5061929;28;20027;-64
2023/02/09 05:27:20;;;;;;;12.93;10.50;;;;;;;-0.04;83.39;147318.28;5061704;28;20302;-66
2023/02/09 05:29:46;;;;;;;13.27;10.80;;;;;;;-0.03;83.90;147322.09;5061750;28;20062;-67
2023/02/09 05:32:11;;;;;;;12.95;10.30;;;;;;;-0.05;83.97;147315.72;5060607;28;20029;-67
2023/02/09 05:34:37;;;;;;;13.30;11.13;;;;;;;-0.10;83.42;147303.00;5060700;28;20028;-65
2023/02/09 05:37:02;;;;;;;14.57;10.88;;;;;;;-0.16;84.39;147287.75;5062023;28;20038;-65
2023/02/09 05:39:28;;;;;;;14.55;10.13;;;;;;;-0.07;84.44;147310.63;5061955;28;20052;-65
2023/02/09 05:44:38;;;;;;;13.98;10.80;;;;;;;-0.04;83.90;147319.53;5060690;28;20111;-65
2023/02/09 05:47:03;;;;;;;12.63;10.38;;;;;;;-0.02;83.45;147323.34;5061633;28;20040;-68
2023/02/09 05:49:29;;;;;;;11.73;9.95;;;;;;;0.05;82.99;147339.88;5061682;28;20024;-68
2023/02/09 05:51:55;;;;;;;13.25;10.80;;;;;;;0.07;83.17;147344.97;5061522;28;20033;-66
2023/02/09 05:54:20;;;;;;;14.23;11.00;;;;;;;0.11;83.22;147356.38;5060414;28;20033;-65
2023/02/09 05:56:46;;;;;;;15.05;11.32;;;;;;;0.13;82.75;147361.50;5061804;28;20048;-65
2023/02/09 05:59:11;;;;;;;12.95;11.10;;;;;;;0.16;83.12;147367.88;5061413;28;20067;-65
2023/02/09 06:01:38;;;;;;;14.95;12.35;;;;;;;0.14;82.65;147364.06;5061517;28;20029;-66
2023/02/09 06:04:04;;;;;;;13.75;11.40;;;;;;;0.10;83.07;147353.88;5061401;28;20032;-63
2023/02/09 06:06:30;;;;;;;13.95;11.35;;;;;;;0.16;82.96;147369.13;5061644;28;20070;-64
2023/02/09 06:08:55;;;;;;;14.60;11.10;;;;;;;0.14;82.50;147364.06;5061416;28;20021;-65
2023/02/09 06:11:21;;;;;;;14.95;11.75;;;;;;;0.14;82.79;147364.06;5052180;28;20240;-66
2023/02/09 06:13:46;;;;;;;16.13;12.10;;;;;;;0.17;82.84;147371.69;5060936;28;20060;-66
2023/02/09 06:16:12;;;;;;;15.27;11.95;;;;;;;0.16;82.82;147369.13;5061622;28;20041;-67
2023/02/09 06:18:38;;;;;;;15.48;11.73;;;;;;;0.16;83.05;147369.13;5060909;28;20052;-67
2023/02/09 06:21:04;;;;;;;14.80;11.60;;;;;;;0.16;82.93;147367.88;5059683;28;20309;-66
2023/02/09 06:23:29;;;;;;;16.63;11.63;;;;;;;0.20;82.44;147376.75;5060636;28;20025;-65
2023/02/09 06:25:56;;;;;;;14.40;11.82;;;;;;;0.19;82.06;147375.47;5060990;28;20037;-65
2023/02/09 06:28:22;;;;;;;18.80;12.52;;;;;;;0.14;81.90;147364.06;5059766;28;20363;-64
2023/02/09 06:30:52;;;;;;;18.77;12.90;;;;;;;0.16;82.18;147367.88;5061675;28;20056;-66
2023/02/09 06:33:18;;;;;;;17.45;11.85;;;;;;;0.25;82.57;147389.47;5064762;28;20088;-64
2023/02/09 06:35:44;;;;;;;19.02;12.32;;;;;;;0.13;82.90;147361.50;5064922;28;20039;-66
2023/02/09 06:38:10;;;;;;;15.85;12.48;;;;;;;0.14;83.18;147364.06;5063931;28;20056;-67
2023/02/09 06:40:35;;;;;;;15.57;12.27;;;;;;;0.28;83.21;147397.09;5064963;28;20220;-66
2023/02/09 06:43:01;;;;;;;16.05;12.25;;;;;;;0.26;82.92;147392.03;5063307;28;20044;-67
2023/02/09 06:45:26;;;;;;;16.70;13.00;;;;;;;0.29;82.51;147399.66;5064609;28;20056;-66
2023/02/09 06:47:52;;;;;;;19.70;13.75;;;;;;;0.21;82.75;147380.56;5050005;28;20262;-66
2023/02/09 06:50:18;;;;;;;17.95;13.52;;;;;;;0.28;82.56;147398.34;5054820;28;20029;-67
2023/02/09 06:52:44;;;;;;;20.58;15.05;;;;;;;0.29;82.79;147400.91;5064547;28;20025;-66
2023/02/09 06:55:10;;;;;;;22.63;15.13;;;;;;;0.08;83.54;147347.50;5064582;28;20382;-66
2023/02/09 06:57:36;;;;;;;21.92;14.75;;;;;;;0.06;84.00;147343.69;5064841;28;20317;-66
2023/02/09 07:00:05;;;;;;;20.02;15.65;;;;;;;0.06;84.26;147343.69;5064477;28;20037;-66
2023/02/09 07:02:31;;;;;;;20.30;15.60;;;;;;;0.20;83.35;147376.75;5064436;28;20457;-66
2023/02/09 07:04:57;;;;;;;21.77;15.05;;;;;;;0.26;83.26;147392.03;5064207;28;20056;-66
2023/02/09 07:07:23;;;;;;;23.08;15.98;;;;;;;0.22;83.46;147381.84;5064367;28;20373;-67
2023/02/09 07:09:48;;;;;;;20.25;14.60;;;;;;;0.25;83.92;147390.72;5064204;28;20041;-66
2023/02/09 07:12:14;;;;;;;24.80;15.45;;;;;;;0.28;83.41;147397.09;5049360;28;20210;-66
2023/02/09 07:14:39;;;;;;;22.98;15.85;;;;;;;0.36;83.43;147417.47;5056431;28;20024;-67
2023/02/09 07:17:05;;;;;;;22.08;15.43;;;;;;;0.39;82.93;147425.06;5064348;28;20036;-67
2023/02/09 07:19:31;;;;;;;20.77;14.63;;;;;;;0.19;83.57;147374.22;5049702;28;20090;-66
2023/02/09 07:21:56;;;;;;;22.55;15.10;;;;;;;0.23;83.67;147385.66;5052536;28;20029;-65
2023/02/09 07:24:23;;;;;;;21.83;15.40;;;;;;;0.27;84.23;147394.53;5043579;28;20191;-66
2023/02/09 07:26:49;;;;;;;21.45;14.65;;;;;;;0.40;83.33;147427.63;5058280;28;20025;-67
2023/02/09 07:29:15;;;;;;;18.33;13.73;;;;;;;0.42;83.01;147432.69;5063966;28;20051;-66
2023/02/09 07:31:41;;;;;;;19.92;14.30;;;;;;;0.45;82.41;147439.06;5063844;28;20033;-65
2023/02/09 07:34:06;;;;;;;18.00;13.77;;;;;;;0.48;82.91;147447.94;5063840;28;20052;-66
2023/02/09 07:36:32;;;;;;;19.23;13.48;;;;;;;0.47;82.98;147444.13;5064084;28;20789;-66
2023/02/09 07:38:58;;;;;;;20.25;13.57;;;;;;;0.56;82.82;147465.81;5064119;28;20028;-66
2023/02/09 07:41:24;;;;;;;17.17;12.93;;;;;;;0.56;82.51;147465.81;5063405;28;20036;-66
2023/02/09 07:43:51;;;;;;;20.58;13.95;;;;;;;0.59;82.95;147473.44;5063282;28;20213;-66
2023/02/09 07:46:18;;;;;;;17.88;13.38;;;;;;;0.47;82.60;147445.44;5052662;28;20048;-67
2023/02/09 07:48:44;;;;;;;19.48;13.70;;;;;;;0.47;82.15;147444.13;5063575;28;20032;-66
2023/02/09 07:51:24;;;;;;;17.92;14.00;;;;;;;0.43;82.73;147433.94;5063167;28;20171;-66
2023/02/09 07:53:50;;;;;;;20.02;14.00;;;;;;;0.54;82.25;147461.94;5062670;28;20098;-66
2023/02/09 07:56:16;;;;;;;19.73;13.48;;;;;;;0.55;82.11;147464.50;5063147;28;20198;-66
2023/02/09 07:58:42;;;;;;;18.48;13.95;;;;;;;0.58;82.38;147470.88;5063542;28;20063;-66
2023/02/09 08:01:10;;;;;;;20.38;13.63;;;;;;;0.71;81.76;147502.66;5063298;28;20021;-66
2023/02/09 08:03:37;;;;;;;18.35;14.18;;;;;;;0.74;81.24;147511.59;5063623;28;20337;-66
2023/02/09 08:06:07;;;;;;;18.95;13.63;;;;;;;0.72;81.58;147505.22;5063280;28;20035;-66
2023/02/09 08:08:32;;;;;;;20.45;14.80;;;;;;;0.57;81.15;147468.31;5063531;28;20029;-66
2023/02/09 08:11:00;;;;;;;23.45;15.23;;;;;;;0.51;81.56;147455.63;5063016;28;20021;-66
2023/02/09 08:13:31;;;;;;;21.83;14.45;;;;;;;0.57;81.39;147469.63;5063192;28;20041;-67
2023/02/09 08:16:03;;;;;;;17.88;13.48;;;;;;;0.73;81.29;147509.03;5063156;28;20032;-67
2023/02/09 08:18:38;;;;;;;19.52;13.57;;;;;;;0.83;80.97;147534.47;5061435;28;20025;-66
2023/02/09 08:21:07;;;;;;;23.77;15.07;;;;;;;0.79;80.91;147524.28;5057587;28;20513;-65
2023/02/09 08:23:34;;;;;;;18.48;13.77;;;;;;;0.95;80.80;147563.72;5042103;28;20032;-67
2023/02/09 08:26:05;;;;;;;17.25;12.88;;;;;;;0.85;80.25;147539.53;5048754;28;20041;-66
2023/02/09 08:28:31;;;;;;;19.13;13.50;;;;;;;0.97;80.27;147567.53;5062216;28;20048;-66
2023/02/09 08:30:57;;;;;;;18.90;14.35;;;;;;;0.99;80.15;147572.66;5060826;28;20032;-66
2023/02/09 08:33:23;;;;;;;19.50;13.52;;;;;;;1.07;79.98;147593.03;5062636;28;20078;-66
2023/02/09 08:35:51;;;;;;;19.52;14.15;;;;;;;0.92;80.39;147556.09;5062616;28;20282;-65
2023/02/09 08:38:18;;;;;;;25.25;15.48;;;;;;;0.75;80.29;147514.09;5062667;28;20029;-65
2023/02/09 08:40:44;;;;;;;18.08;13.52;;;;;;;0.72;80.69;147506.47;5061581;28;20029;-65
2023/02/09 08:43:11;;;;;;;21.58;15.90;;;;;;;0.88;81.08;147544.66;5062188;28;20044;-66
2023/02/09 08:45:39;;;;;;;20.95;13.85;;;;;;;0.86;80.39;147540.84;5041525;28;20044;-66
2023/02/09 08:48:06;;;;;;;19.02;14.10;;;;;;;0.86;80.66;147540.84;5052564;28;20041;-65
2023/02/09 08:50:35;;;;;;;21.38;15.40;;;;;;;0.97;80.66;147567.53;5053389;28;20028;-66
2023/02/09 08:53:04;;;;;;;20.55;13.18;;;;;;;1.07;80.17;147591.72;5061532;28;20112;-66
2023/02/09 08:55:31;;;;;;;17.98;12.95;;;;;;;1.10;79.09;147599.34;5062492;28;20225;-66
2023/02/09 08:57:56;;;;;;;19.02;13.18;;;;;;;1.12;79.17;147604.47;5062303;28;20082;-65
2023/02/09 09:00:22;;;;;;;19.17;14.80;;;;;;;1.01;79.35;147577.72;5061963;28;20033;-65
2023/02/09 09:02:47;;;;;;;20.05;14.40;;;;;;;1.04;79.23;147585.34;5055592;28;20021;-65
2023/02/09 09:05:13;;;;;;;20.45;14.35;;;;;;;0.92;79.79;147556.09;5050165;28;20186;-66
2023/02/09 09:07:39;;;;;;;19.55;13.50;;;;;;;1.02;80.12;147580.28;5062150;28;20132;-66
2023/02/09 09:10:07;;;;;;;21.33;14.32;;;;;;;1.08;79.81;147594.28;5060900;28;20033;-67
2023/02/09 09:12:33;;;;;;;19.33;14.45;;;;;;;1.05;79.69;147587.91;5060955;28;20120;-66
2023/02/09 09:14:59;;;;;;;22.58;15.43;;;;;;;1.11;79.82;147603.19;5061581;28;20025;-66
2023/02/09 09:17:25;;;;;;;21.08;15.40;;;;;;;1.11;79.73;147601.91;5061697;28;20075;-66
2023/02/09 09:19:55;;;;;;;20.80;14.15;;;;;;;1.19;79.69;147623.53;5042674;28;20041;-66
2023/02/09 09:22:24;;;;;;;19.95;14.02;;;;;;;1.24;80.08;147635.03;5057481;28;20066;-66
2023/02/09 09:24:53;;;;;;;18.30;13.35;;;;;;;1.16;79.48;147614.66;5058564;28;20029;-65
2023/02/09 09:27:18;;;;;;;19.50;15.05;;;;;;;1.19;79.62;147623.53;5059537;28;20039;-66
2023/02/09 09:29:44;;;;;;;20.55;15.10;;;;;;;1.32;79.75;147655.34;5059178;28;20052;-66
2023/02/09 09:32:12;;;;;;;22.80;15.38;;;;;;;1.24;79.87;147633.72;5061361;28;20509;-65
2023/02/09 09:34:38;;;;;;;23.00;16.25;;;;;;;1.26;79.55;147638.84;5061870;28;20028;-66
2023/02/09 09:37:04;;;;;;;25.10;16.20;;;;;;;1.27;79.81;147641.34;5062055;28;20020;-67
2023/02/09 09:39:30;;;;;;;24.50;17.08;;;;;;;1.15;79.64;147613.34;5061633;28;20311;-66
2023/02/09 09:41:59;;;;;;;24.08;16.50;;;;;;;1.26;79.72;147638.84;5061804;28;20039;-67
2023/02/09 09:44:43;;;;;;;23.25;16.88;;;;;;;1.39;79.87;147671.91;5062000;28;20052;-66
2023/02/09 09:47:18;;;;;;;23.45;15.98;;;;;;;1.38;79.11;147669.34;5061695;28;20036;-67
2023/02/09 09:49:43;;;;;;;24.90;14.98;;;;;;;1.23;79.28;147631.16;5051485;28;20024;-66
2023/02/09 09:52:18;;;;;;;18.33;14.85;;;;;;;1.29;79.39;147647.72;5060349;28;20083;-69
2023/02/09 09:54:44;;;;;;;19.13;14.23;;;;;;;1.27;79.37;147641.34;5041882;28;20021;-65
2023/02/09 09:57:29;;;;;;;22.00;14.23;;;;;;;1.21;79.65;147627.34;5057272;28;20032;-66
2023/02/09 09:59:56;;;;;;;20.42;13.75;;;;;;;1.31;79.46;147651.53;5061318;28;20490;-67
2023/02/09 10:02:32;;;;;;;19.60;13.40;;;;;;;1.40;79.54;147674.47;5061271;28;20040;-66
2023/02/09 10:05:22;;;;;;;23.55;15.10;;;;;;;1.28;79.10;147645.16;5062098;28;20028;-66
2023/02/09 10:07:54;;;;;;;19.95;14.27;;;;;;;1.40;78.63;147674.47;5065617;28;20033;-67
2023/02/09 10:10:42;;;;;;;18.35;13.25;;;;;;;1.47;78.86;147692.28;5065462;28;20314;-66
2023/02/09 10:13:18;;;;;;;20.70;14.32;;;;;;;1.41;79.00;147677.03;5045037;28;20041;-67
2023/02/09 10:15:47;;;;;;;21.23;15.15;;;;;;;1.51;78.78;147702.47;5044569;28;20059;-67
2023/02/09 10:18:15;;;;;;;18.83;13.88;;;;;;;1.52;78.44;147704.97;5060792;28;20123;-65
2023/02/09 10:20:50;;;;;;;18.63;14.07;;;;;;;1.38;77.96;147669.34;5065141;28;20033;-66
2023/02/09 10:23:35;;;;;;;19.40;14.40;;;;;;;1.43;77.94;147682.09;5046384;28;20087;-67
2023/02/09 10:26:22;;;;;;;20.67;13.90;;;;;;;1.38;78.10;147669.34;5051276;28;20256;-68
2023/02/09 10:29:20;;;;;;;15.52;12.30;;;;;;;1.45;77.79;147687.16;5064186;28;20305;-67
2023/02/09 10:31:56;;;;;;;16.45;12.15;;;;;;;1.53;77.88;147706.28;5064873;28;20029;-66
2023/02/09 10:34:29;;;;;;;15.10;11.18;;;;;;;1.62;77.87;147729.19;5064883;28;20134;-66
2023/02/09 10:37:13;;;;;;;17.33;11.60;;;;;;;1.58;77.55;147717.72;5064337;28;20021;-67
2023/02/09 10:39:39;;;;;;;16.42;11.02;;;;;;;1.65;77.36;147736.81;5065156;28;20481;-67
2023/02/09 10:42:32;;;;;;;14.40;10.30;;;;;;;1.42;77.04;147679.53;5064426;28;20055;-66
2023/02/09 10:45:25;;;;;;;16.90;10.00;;;;;;;1.37;77.18;147668.09;5063325;28;20417;-66
2023/02/09 10:48:12;;;;;;;15.90;11.18;;;;;;;1.45;77.00;147687.16;5064899;28;20049;-67
2023/02/09 10:50:59;;;;;;;14.63;10.30;;;;;;;1.51;77.03;147702.47;5064783;28;20135;-66
2023/02/09 10:53:31;;;;;;;17.00;11.48;;;;;;;1.46;77.54;147688.47;5064415;28;20025;-67
2023/02/09 10:56:02;;;;;;;16.10;10.55;;;;;;;1.43;77.11;147680.84;5064522;28;20031;-67
2023/02/09 10:58:34;;;;;;;14.80;11.00;;;;;;;1.46;77.84;147688.47;5056024;28;20048;-66
2023/02/09 11:01:14;;;;;;;16.48;10.85;;;;;;;1.47;77.82;147692.28;5063609;28;20059;-67
2023/02/09 11:04:20;;;;;;;14.63;10.60;;;;;;;1.38;77.33;147669.34;5063051;28;20250;-66
2023/02/09 11:07:08;;;;;;;18.38;11.45;;;;;;;1.24;77.69;147635.03;5044384;28;20038;-66
2023/02/09 11:09:38;;;;;;;21.42;12.15;;;;;;;1.42;77.78;147678.28;5062623;28;20033;-66
2023/02/09 11:12:08;;;;;;;20.98;11.95;;;;;;;1.40;77.51;147673.16;5063728;28;20021;-68
2023/02/09 11:14:34;;;;;;;18.05;10.93;;;;;;;1.43;77.55;147682.09;5063346;28;20021;-67
2023/02/09 11:17:15;;;;;;;18.70;11.98;;;;;;;1.53;77.57;147707.53;5060887;28;20037;-68
2023/02/09 11:20:12;;;;;;;18.40;12.75;;;;;;;1.57;77.62;147715.19;5063327;28;20239;-67
2023/02/09 11:22:50;;;;;;;19.85;13.35;;;;;;;1.52;77.66;147704.97;5051867;28;20366;-66
2023/02/09 11:25:32;;;;;;;15.73;11.98;;;;;;;1.54;77.03;147708.84;5061849;28;20021;-69
2023/02/09 11:28:17;;;;;;;17.08;12.70;;;;;;;1.62;77.24;147727.91;5060313;28;20250;-67
2023/02/09 11:31:27;;;;;;;15.38;11.55;;;;;;;1.63;77.29;147730.47;5060525;28;20040;-69
2023/02/09 11:34:23;;;;;;;15.35;10.82;;;;;;;1.52;76.79;147703.72;5042147;28;20033;-67
2023/02/09 11:36:56;;;;;;;15.70;9.82;;;;;;;1.50;76.90;147698.66;5060089;28;20045;-70
2023/02/09 11:39:29;;;;;;;14.80;9.60;;;;;;;1.49;76.97;147696.09;5062510;28;20033;-68